Latest Weather Observations for Ballarat

IDV60801

Issued at 3:05 am EDT Friday 31 October 2014 (issued every 30 minutes, with the page automatically refreshed every 10 minutes)

About weather observations | Map of weather stations | Latest weather observations for VIC | Other Formats
Station Details ID: 089002 Name: BALLARAT AERODROME Lat: -37.51 Lon: 143.79 Height: 435.2 m
Data from the previous 72 hours. | See also: Recent months at Ballarat
Date/Time
EDT
Temp
°C
App
Temp
°C
Dew
Point
Rel
Hum
%
Delta-T
°C
Wind Press
QNH
hPa
Press
MSL
hPa
Rain
since 9 am
mm
Dir
 
Spd
km/h
Gust
km/h
Spd
kts
Gust
kts
31/03:00am 6.4 4.4 6.1 98 0.1 NE 6 6 3 3 1011.4 1011.2 0.0
31/02:30am 7.5 5.6 7.4 99 0.0 SE 7 9 4 5 1011.6 1011.4 0.0
31/02:00am 8.0 5.8 7.9 99 0.0 SSE 9 13 5 7 1011.9 1011.8 0.0
31/01:30am 8.3 6.2 8.2 99 0.0 SE 9 13 5 7 1012.5 1012.4 0.0
31/01:00am 8.1 5.6 8.0 99 0.0 SE 11 13 6 7 1013.0 1012.9 0.0
31/12:30am 8.1 5.1 7.8 98 0.1 SE 13 15 7 8 1013.8 1013.7 0.0
31/12:00am 8.4 6.3 8.1 98 0.1 SSE 9 11 5 6 1013.9 1013.8 0.0
 
Date/Time
EDT
Temp
°C
App
Temp
°C
Dew
Point
Rel
Hum
%
Delta-T
°C
Wind Press
QNH
hPa
Press
MSL
hPa
Rain
since 9 am
mm
Dir
 
Spd
km/h
Gust
km/h
Spd
kts
Gust
kts
30/11:30pm 9.1 7.1 8.8 98 0.2 S 9 11 5 6 1013.9 1013.8 0.0
30/11:00pm 10.1 8.3 9.3 95 0.4 S 9 11 5 6 1013.9 1013.8 0.0
30/10:30pm 11.6 8.9 10.3 92 0.7 S 15 17 8 9 1013.9 1013.8 0.0
30/10:00pm 11.9 9.1 10.1 89 0.9 S 15 17 8 9 1013.6 1013.4 0.0
30/09:30pm 13.3 10.1 10.1 81 1.7 S 17 22 9 12 1013.7 1013.6 0.0
30/09:00pm 13.9 10.1 8.9 72 2.6 S 19 22 10 12 1013.5 1013.3 0.0
30/08:30pm 14.7 12.1 7.7 63 3.6 S 11 13 6 7 1013.3 1013.1 0.0
30/08:00pm 16.5 13.7 6.9 53 4.9 S 11 13 6 7 1013.1 1013.0 0.0
30/07:30pm 18.6 16.4 6.4 45 6.2 SSW 7 11 4 6 1012.8 1012.7 0.0
30/07:00pm 19.4 16.4 5.8 41 6.9 SSW 11 13 6 7 1012.8 1012.7 0.0
30/06:30pm 20.2 17.5 5.8 39 7.3 SW 9 13 5 7 1013.0 1012.9 0.0
30/06:00pm 20.2 16.8 5.8 39 7.3 W 13 19 7 10 1013.3 1013.1 0.0
30/05:30pm 20.6 17.2 5.8 38 7.5 WSW 13 20 7 11 1013.1 1013.0 0.0
30/05:00pm 20.3 17.4 6.6 41 7.1 SSW 11 22 6 12 1013.4 1013.2 0.0
30/04:30pm 20.3 17.1 7.0 42 6.9 SW 13 22 7 12 1013.5 1013.3 0.0
30/04:00pm 20.4 17.8 7.7 44 6.7 WSW 11 17 6 9 1013.5 1013.3 0.0
30/03:30pm 19.8 16.8 7.5 45 6.4 W 13 24 7 13 1013.5 1013.3 0.0
30/03:00pm 19.0 16.8 7.8 48 5.9 SSW 9 13 5 7 1013.9 1013.8 0.0
30/02:30pm 18.4 15.4 7.5 49 5.6 W 13 24 7 13 1014.1 1014.0 0.0
30/02:00pm 18.0 14.5 8.8 55 4.9 WNW 17 22 9 12 1014.4 1014.3 0.0
30/01:30pm 17.2 13.2 8.1 55 4.7 NW 19 22 10 12 1014.5 1014.4 0.0
30/01:00pm 16.5 12.9 8.2 58 4.3 W 17 26 9 14 1015.0 1014.9 0.0
30/12:30pm 16.0 13.5 8.2 60 4.0 NW 11 20 6 11 1015.1 1015.0 0.0
30/12:00pm 15.0 11.9 8.7 66 3.3 WNW 15 20 8 11 1015.3 1015.2 0.0
30/11:30am 14.2 12.0 7.7 65 3.3 W 9 20 5 11 1015.7 1015.6 0.0
30/11:00am 13.0 11.1 7.7 70 2.7 SW 7 15 4 8 1015.9 1015.8 0.0
30/10:30am 12.4 9.4 7.9 74 2.3 WSW 13 20 7 11 1016.2 1016.1 0.0
30/10:00am 11.8 8.9 8.3 79 1.8 WSW 13 19 7 10 1016.4 1016.3 0.0
30/09:30am 11.1 8.2 8.1 82 1.5 WSW 13 20 7 11 1016.1 1016.0 0.0
30/09:28am 11.4 8.7 8.8 84 1.3 WSW 13 19 7 10 1016.1 1016.0 0.0
30/09:00am 11.0 8.2 8.4 84 1.3 W 13 17 7 9 1015.9 1015.8 0.0
30/08:43am 10.6 8.1 8.2 85 1.2 SW 11 15 6 8 1016.0 1015.9 0.0
30/08:30am 10.6 8.7 9.0 90 0.8 SSW 9 15 5 8 1016.1 1016.0 0.0
30/08:00am 9.8 7.2 9.5 98 0.2 SSW 13 19 7 10 1016.0 1015.9 0.0
30/07:30am 9.3 8.0 9.2 99 0.1 SSW 6 11 3 6 1015.4 1015.3 0.0
30/07:00am 7.4 5.6 7.3 99 0.0 S 6 6 3 3 1015.3 1015.2 0.0
30/06:32am 8.1 6.5 7.8 98 0.1 SSW 6 7 3 4 1014.9 1014.8 0.0
30/06:30am 8.3 6.7 8.2 99 0.0 SSW 6 7 3 4 1014.8 1014.7 0.0
30/06:00am 9.1 8.1 9.0 99 0.1 S 4 7 2 4 1014.6 1014.5 0.0
30/05:30am 9.2 7.9 9.1 99 0.1 S 6 9 3 5 1015.1 1015.0 0.0
30/05:05am 8.8 6.4 8.7 99 0.0 SSW 11 20 6 11 1015.1 1015.0 0.0
30/05:00am 8.4 6.3 8.3 99 0.0 SSW 9 13 5 7 1014.9 1014.8 0.0
30/04:41am 8.3 6.2 8.2 99 0.0 SSW 9 13 5 7 1014.9 1014.8 0.0
30/04:30am 8.5 6.0 8.4 99 0.0 SSW 11 19 6 10 1014.7 1014.6 0.0
30/04:14am 8.6 6.6 8.5 99 0.0 S 9 11 5 6 1014.5 1014.4 0.0
30/04:00am 7.9 6.1 7.8 99 0.0 S 7 9 4 5 1014.4 1014.3 0.0
30/03:30am 8.3 6.6 8.2 99 0.0 SSE 7 9 4 5 1014.6 1014.5 0.0
30/03:00am 9.3 7.8 9.2 99 0.1 S 7 9 4 5 1014.8 1014.7 0.0
30/02:37am 9.2 7.7 9.1 99 0.1 S 7 9 4 5 1015.0 1014.9 0.0
30/02:30am 9.1 7.6 9.0 99 0.1 S 7 9 4 5 1015.0 1014.9 0.0
30/02:00am 10.0 7.9 9.9 99 0.1 S 11 13 6 7 1015.2 1015.1 0.0
30/01:30am 9.8 8.1 9.7 99 0.1 SSE 9 13 5 7 1015.7 1015.6 0.0
30/01:03am 10.2 8.1 9.9 98 0.2 SSE 11 15 6 8 1016.1 1016.0 0.0
30/01:00am 10.1 8.0 9.8 98 0.2 SSE 11 15 6 8 1016.1 1016.0 0.0
30/12:30am 11.0 9.2 10.7 98 0.2 S 11 15 6 8 1016.6 1016.5 0.0
30/12:00am 11.1 8.9 10.8 98 0.2 S 13 19 7 10 1016.8 1016.7 0.0
 
Date/Time
EDT
Temp
°C
App
Temp
°C
Dew
Point
Rel
Hum
%
Delta-T
°C
Wind Press
QNH
hPa
Press
MSL
hPa
Rain
since 9 am
mm
Dir
 
Spd
km/h
Gust
km/h
Spd
kts
Gust
kts
29/11:30pm 11.1 8.1 10.8 98 0.2 S 17 22 9 12 1016.9 1016.8 0.0
29/11:00pm 11.1 7.8 10.8 98 0.2 S 19 26 10 14 1016.8 1016.7 0.0
29/10:43pm 10.9 7.5 10.7 99 0.1 S 19 24 10 13 1016.7 1016.6 0.0
29/10:30pm 10.6 7.1 10.3 98 0.2 S 19 22 10 12 1016.8 1016.7 0.0
29/10:00pm 11.2 8.4 9.9 92 0.7 S 15 22 8 12 1016.8 1016.7 0.0
29/09:30pm 12.7 10.5 9.2 79 1.8 SSW 11 20 6 11 1016.7 1016.6 0.0
29/09:00pm 12.4 10.4 8.5 77 2.0 S 9 11 5 6 1016.5 1016.4 0.0
29/08:30pm 14.1 12.2 8.9 71 2.7 SSW 9 15 5 8 1016.3 1016.2 0.0
29/08:00pm 15.3 11.4 8.8 65 3.4 SSW 19 24 10 13 1016.1 1016.0 0.0
29/07:30pm 17.2 14.9 8.9 58 4.4 SSW 11 17 6 9 1015.5 1015.4 0.0
29/07:00pm 18.3 15.1 8.6 53 5.1 S 15 22 8 12 1015.2 1015.1 0.0
29/06:30pm 19.8 15.4 7.2 44 6.5 WSW 20 30 11 16 1015.1 1015.0 0.0
29/06:00pm 19.7 15.1 6.4 42 6.8 WNW 20 28 11 15 1015.0 1014.9 0.0
29/05:30pm 20.6 15.6 6.5 40 7.3 W 22 33 12 18 1015.0 1014.9 0.0
29/05:00pm 20.7 16.8 9.6 49 6.1 W 20 28 11 15 1015.0 1014.9 0.0
29/04:30pm 20.1 16.2 7.1 43 6.8 WNW 17 24 9 13 1015.1 1015.0 0.0
29/04:00pm 20.3 16.2 8.0 45 6.5 WNW 19 28 10 15 1015.1 1015.0 0.0
29/03:30pm 19.6 16.1 8.9 50 5.7 N 17 20 9 11 1015.5 1015.4 0.0
29/03:00pm 19.3 15.6 8.0 48 5.9 N 17 22 9 12 1015.9 1015.8 0.0
29/02:30pm 18.5 15.0 8.7 53 5.2 NNW 17 32 9 17 1016.4 1016.3 0.0
29/02:00pm 17.9 13.7 7.6 51 5.3 NW 19 30 10 16 1016.9 1016.8 0.0
29/01:30pm 17.0 12.5 7.1 52 5.0 NW 20 30 11 16 1017.1 1017.0 0.0
29/01:20pm 16.6 13.0 8.3 58 4.3 N 17 26 9 14 1017.2 1017.1 0.0
29/01:00pm 15.9 12.8 8.9 63 3.7 N 15 26 8 14 1017.6 1017.6 0.0
29/12:30pm 14.0 11.3 7.3 64 3.4 WNW 11 19 6 10 1018.2 1018.1 0.0
29/12:00pm 13.2 10.6 7.6 69 2.8 WNW 11 17 6 9 1018.5 1018.4 0.0
29/11:30am 13.1 9.8 8.0 71 2.6 NW 15 20 8 11 1018.9 1018.8 0.0
29/11:00am 11.7 7.5 7.4 75 2.1 W 19 24 10 13 1019.1 1019.0 0.0
29/10:30am 11.1 7.4 6.5 73 2.2 W 15 22 8 12 1019.0 1018.9 0.0
29/10:00am 11.0 7.1 7.1 77 1.9 W 17 22 9 12 1019.1 1019.0 0.0
29/09:30am 10.3 6.3 6.6 78 1.8 W 17 22 9 12 1019.2 1019.1 0.0
29/09:00am 10.4 6.7 7.8 84 1.3 W 17 24 9 13 1019.1 1019.0 0.0
29/08:44am 9.9 6.2 8.0 88 0.9 W 17 24 9 13 1019.1 1019.0 0.0
29/08:30am 8.9 5.7 8.6 98 0.1 W 15 22 8 12 1019.0 1018.9 0.0
29/08:00am 8.1 5.2 8.1 100 0.0 W 13 20 7 11 1018.9 1018.8 0.0
29/07:47am 8.1 6.0 8.1 100 0.0 W 9 13 5 7 1018.9 1018.8 0.0
29/07:30am 7.5 6.1 7.4 99 0.0 NW 4 7 2 4 1018.7 1018.6 0.0
29/07:08am 7.0 5.1 6.9 99 0.0 NW 6 7 3 4 1018.6 1018.5 0.0
29/07:00am 6.7 4.6 6.6 99 0.0 NNW 7 9 4 5 1018.5 1018.4 0.0
29/06:30am 5.1 4.0 5.0 99 0.0 CALM 0 0 0 0 1018.2 1018.1 0.0
29/06:29am 4.9 3.7 4.8 99 0.0 CALM 0 0 0 0 1018.2 1018.1 0.0
29/06:16am 5.1 3.6 5.0 99 0.0 W 2 6 1 3 1017.9 1017.9 0.0
29/06:00am 6.4 4.4 6.3 99 0.0 WSW 6 7 3 4 1017.7 1017.7 0.0
29/05:30am 6.6 4.5 6.5 99 0.0 WSW 7 9 4 5 1017.4 1017.3 0.0
29/05:20am 6.7 4.5 6.4 98 0.1 SW 7 9 4 5 1017.3 1017.2 0.0
29/05:00am 6.7 4.7 6.4 98 0.1 SW 6 7 3 4 1017.2 1017.1 0.0
29/04:30am 7.0 4.5 6.7 98 0.1 SSW 9 13 5 7 1017.2 1017.1 0.0
29/04:00am 7.2 4.8 6.9 98 0.1 SW 9 13 5 7 1017.1 1017.0 0.0
29/03:30am 7.3 5.3 7.0 98 0.1 SW 7 9 4 5 1017.1 1017.0 0.0
29/03:00am 8.0 6.3 7.6 97 0.2 SW 6 9 3 5 1017.2 1017.1 0.0
29/02:30am 8.3 5.9 7.1 92 0.6 SW 9 13 5 7 1017.2 1017.1 0.0
29/02:00am 8.7 6.0 7.3 91 0.7 SSW 11 17 6 9 1017.3 1017.2 0.0
29/01:30am 8.6 6.1 6.7 88 0.9 SW 9 15 5 8 1017.5 1017.4 0.0
29/01:00am 8.5 6.0 6.5 87 0.9 WSW 9 13 5 7 1017.6 1017.6 0.0
29/12:30am 8.6 6.0 6.1 84 1.2 SW 9 13 5 7 1017.7 1017.7 0.0
29/12:00am 8.7 6.0 5.6 81 1.4 SW 9 17 5 9 1017.7 1017.7 0.0
 
Date/Time
EDT
Temp
°C
App
Temp
°C
Dew
Point
Rel
Hum
%
Delta-T
°C
Wind Press
QNH
hPa
Press
MSL
hPa
Rain
since 9 am
mm
Dir
 
Spd
km/h
Gust
km/h
Spd
kts
Gust
kts
28/11:30pm 9.2 6.6 5.9 80 1.5 SW 9 13 5 7 1017.8 1017.8 0.0
28/11:00pm 9.1 6.4 5.7 79 1.6 SW 9 13 5 7 1017.8 1017.8 0.0
28/10:30pm 9.3 5.8 5.5 77 1.8 SSW 13 15 7 8 1017.8 1017.8 0.0
28/10:00pm 9.4 5.8 5.2 75 1.9 SSW 13 19 7 10 1017.9 1017.9 0.0
28/09:30pm 9.7 5.4 5.1 73 2.1 SSW 17 26 9 14 1017.6 1017.6 0.0
28/09:00pm 10.0 6.1 5.4 73 2.1 SSW 15 19 8 10 1017.3 1017.2 0.0
28/08:30pm 10.2 5.9 5.2 71 2.3 SSW 17 26 9 14 1017.0 1016.9 0.0
28/08:00pm 11.2 6.4 5.7 69 2.6 SW 20 26 11 14 1016.5 1016.4 0.0
28/07:30pm 11.8 7.3 6.1 68 2.7 SW 19 26 10 14 1016.0 1015.9 0.0
28/07:00pm 12.0 8.0 8.1 77 2.0 SW 19 26 10 14 1015.7 1015.6 0.0
28/06:30pm 12.3 8.4 8.8 79 1.8 SW 19 33 10 18 1015.4 1015.3 0.0
28/06:00pm 12.6 7.8 8.9 78 1.9 WSW 24 33 13 18 1015.1 1015.0 0.0
28/05:30pm 13.4 8.6 8.7 73 2.4 WSW 24 33 13 18 1014.7 1014.6 0.0
28/05:00pm 13.8 8.2 7.3 65 3.3 WSW 26 39 14 21 1014.4 1014.3 0.0
28/04:30pm 14.8 8.2 6.1 56 4.3 WSW 30 48 16 26 1014.1 1014.0 0.0
28/04:19pm 14.8 8.3 6.6 58 4.1 WSW 30 48 16 26 1014.1 1014.0 0.0
28/04:00pm 14.7 8.4 7.3 61 3.7 W 30 43 16 23 1014.0 1013.9 0.0
28/03:30pm 14.2 8.1 8.4 68 3.0 WNW 30 39 16 21 1014.1 1014.0 0.0
28/03:28pm 14.4 8.4 8.6 68 3.0 WNW 30 35 16 19 1014.1 1014.0 0.0
28/03:00pm 15.1 7.1 5.9 54 4.5 W 37 50 20 27 1013.9 1013.8 0.0
28/02:50pm 15.1 6.9 6.7 57 4.2 W 39 44 21 24 1013.9 1013.8 0.0
28/02:30pm 15.0 9.4 7.3 60 3.9 WSW 26 35 14 19 1014.0 1013.9 0.0
28/02:01pm 15.1 8.3 6.7 57 4.2 W 32 50 17 27 1013.6 1013.4 0.0
28/02:00pm 15.4 8.9 6.7 56 4.4 W 30 43 16 23 1013.7 1013.6 0.0
28/01:30pm 14.2 8.0 7.9 66 3.2 W 30 43 16 23 1013.7 1013.6 0.0
28/01:00pm 13.5 7.3 9.2 75 2.2 WSW 32 44 17 24 1013.6 1013.4 0.0
28/12:30pm 14.1 8.0 9.9 76 2.2 WSW 32 41 17 22 1013.3 1013.1 0.0
28/12:06pm 13.2 7.6 11.6 90 0.9 WSW 32 50 17 27 1013.4 1013.2 0.0
28/12:00pm 12.2 5.3 10.4 89 1.0 W 37 50 20 27 1013.4 1013.2 0.0
28/11:35am 13.5 5.9 9.2 75 2.2 W 39 57 21 31 1013.1 1013.0 0.0
28/11:30am 12.8 4.2 8.3 74 2.3 W 43 57 23 31 1013.3 1013.1 0.0
28/11:24am 13.4 6.3 8.0 70 2.7 W 35 57 19 31 1012.9 1012.8 0.0
28/11:00am 13.0 6.4 8.7 75 2.2 W 33 46 18 25 1012.9 1012.8 0.0
28/10:36am 12.2 4.7 8.1 76 2.1 W 37 57 20 31 1012.7 1012.6 0.0
28/10:30am 12.9 5.0 8.0 72 2.5 W 39 56 21 30 1012.6 1012.5 0.0
28/10:00am 12.4 3.5 7.5 72 2.4 W 44 61 24 33 1012.4 1012.3 0.0
28/09:30am 11.7 4.4 7.4 75 2.1 W 35 59 19 32 1012.5 1012.4 0.0
28/09:20am 11.6 4.0 7.5 76 2.0 W 37 56 20 30 1012.3 1012.2 0.0
28/09:00am 11.3 4.6 8.0 80 1.6 W 33 46 18 25 1012.2 1012.1 1.6
28/08:34am 10.5 4.3 7.7 83 1.4 W 30 48 16 26 1012.0 1011.9 1.6
28/08:30am 10.4 4.2 8.0 85 1.2 W 30 35 16 19 1012.0 1011.9 1.6
28/08:00am 9.2 4.8 8.9 98 0.2 NW 22 30 12 16 1011.9 1011.8 1.6
28/07:30am 8.0 2.9 7.6 97 0.2 NNW 24 33 13 18 1011.6 1011.4 1.6
28/07:17am 8.9 2.9 8.6 98 0.1 W 30 48 16 26 1011.6 1011.4 1.6
28/07:00am 9.0 4.3 7.9 93 0.5 W 22 39 12 21 1011.5 1011.3 1.6
28/06:30am 8.4 3.8 6.7 89 0.8 WNW 20 28 11 15 1011.5 1011.3 1.6
28/06:00am 8.1 3.4 5.0 81 1.4 NNW 19 24 10 13 1011.0 1010.8 1.6
28/05:30am 8.2 3.2 4.6 78 1.6 NNW 20 26 11 14 1010.6 1010.5 1.6
28/05:00am 8.6 2.9 4.8 77 1.7 NW 24 32 13 17 1010.7 1010.6 1.6
28/04:30am 7.9 2.9 4.7 80 1.4 NW 20 28 11 15 1010.6 1010.5 1.6
28/04:00am 7.9 2.0 4.1 77 1.7 NW 24 32 13 17 1010.9 1010.7 1.6
28/03:30am 8.1 1.8 3.6 73 2.0 NW 26 35 14 19 1011.4 1011.2 1.6

Other Formats:

Comma delimited format used in spreadsheet applications
http://www.bom.gov.au/fwo/IDV60801/IDV60801.94852.axf

JavaScript Object Notation format (JSON) in row-major order
http://www.bom.gov.au/fwo/IDV60801/IDV60801.94852.json